Time;durP1;ratioP1;P1;durP2;ratioP2;P2;SDS_P1;SDS_P2;PMS_P1;PMS_P2;Temp;Humidity;BMP_temperature;BMP_pressure;BME280_temperature;BME280_humidity;BME280_pressure;Samples;Min_cycle;Max_cycle;Signal;HPM_P1;HPM_P2
2023/10/17 00:01:34;;;;;;;10.47;6.37;;;7.20;99.90;;;;;;4943789;29;20043;-92
2023/10/17 00:04:46;;;;;;;10.40;6.43;;;7.20;99.90;;;;;;4954504;29;20043;-91
2023/10/17 00:07:02;;;;;;;10.50;6.20;;;7.10;99.90;;;;;;4962665;28;20043;-91
2023/10/17 00:09:30;;;;;;;11.60;7.27;;;7.10;99.90;;;;;;4940523;28;20039;-91
2023/10/17 00:11:58;;;;;;;11.70;6.67;;;7.00;99.90;;;;;;4957186;28;20039;-91
2023/10/17 00:14:35;;;;;;;9.97;6.87;;;6.90;99.90;;;;;;4957268;28;20473;-91
2023/10/17 00:17:04;;;;;;;10.63;6.20;;;6.90;99.90;;;;;;4957414;28;20057;-92
2023/10/17 00:19:33;;;;;;;7.63;6.30;;;6.80;99.90;;;;;;4941355;28;20035;-91
2023/10/17 00:22:02;;;;;;;8.47;6.27;;;6.90;99.90;;;;;;4940827;28;20496;-92
2023/10/17 00:24:28;;;;;;;9.80;6.10;;;6.80;99.90;;;;;;4956834;28;20503;-91
2023/10/17 00:26:54;;;;;;;10.67;6.80;;;6.80;99.90;;;;;;4958176;28;20089;-92
2023/10/17 00:29:19;;;;;;;9.33;6.10;;;6.70;99.90;;;;;;4957817;28;20050;-91
2023/10/17 00:31:46;;;;;;;8.43;5.90;;;6.80;99.90;;;;;;4973456;28;21623;-91
2023/10/17 00:34:23;;;;;;;8.40;5.70;;;6.80;99.90;;;;;;4941580;28;20050;-91
2023/10/17 00:36:49;;;;;;;8.87;5.77;;;6.80;99.90;;;;;;4957179;28;20047;-92
2023/10/17 00:39:37;;;;;;;6.70;5.23;;;6.80;99.90;;;;;;4956884;28;20041;-92
2023/10/17 00:44:46;;;;;;;9.80;5.07;;;6.80;99.90;;;;;;4975366;28;20053;-92
2023/10/17 00:47:13;;;;;;;6.37;4.27;;;6.80;99.90;;;;;;4977158;28;20043;-92
2023/10/17 00:49:42;;;;;;;8.63;4.63;;;6.80;99.90;;;;;;4960380;28;20382;-92
2023/10/17 00:52:23;;;;;;;8.03;4.70;;;6.70;99.90;;;;;;4934888;28;20034;-92
2023/10/17 00:54:51;;;;;;;8.60;4.27;;;6.70;99.90;;;;;;4951746;29;20051;-92
2023/10/17 00:57:18;;;;;;;10.30;4.80;;;6.70;99.90;;;;;;4942794;28;20052;-91
2023/10/17 00:59:53;;;;;;;10.97;4.83;;;6.70;99.90;;;;;;4960521;28;20045;-92
2023/10/17 01:02:29;;;;;;;6.80;3.80;;;6.70;99.90;;;;;;4976868;28;20074;-92
2023/10/17 01:04:58;;;;;;;10.87;4.47;;;6.70;99.90;;;;;;4960693;28;20121;-92
2023/10/17 01:07:34;;;;;;;4.83;3.83;;;6.70;99.90;;;;;;4944512;28;20514;-92
2023/10/17 01:10:10;;;;;;;6.17;4.27;;;6.70;99.90;;;;;;4960621;28;20398;-92
2023/10/17 01:12:42;;;;;;;6.63;4.23;;;6.70;99.90;;;;;;4960486;28;20074;-92
2023/10/17 01:15:19;;;;;;;6.70;4.05;;;6.70;99.90;;;;;;4960033;28;20553;-92
2023/10/17 01:17:44;;;;;;;7.07;4.50;;;6.70;99.90;;;;;;4960154;28;20038;-92
2023/10/17 01:20:15;;;;;;;7.53;4.30;;;6.80;99.90;;;;;;4943815;28;20509;-91
2023/10/17 01:22:42;;;;;;;7.50;4.20;;;6.70;99.90;;;;;;4933598;28;20038;-91
2023/10/17 01:25:25;;;;;;;8.67;4.50;;;6.80;99.90;;;;;;4975724;28;20055;-91
2023/10/17 01:27:51;;;;;;;7.20;4.13;;;6.80;99.90;;;;;;4946708;28;20074;-91
2023/10/17 01:30:18;;;;;;;5.40;3.90;;;6.70;99.90;;;;;;4944064;28;20380;-91
2023/10/17 01:32:44;;;;;;;7.37;3.70;;;6.70;99.90;;;;;;4959402;28;20467;-92
2023/10/17 01:35:11;;;;;;;5.47;3.87;;;6.70;99.90;;;;;;4959533;28;20043;-91
2023/10/17 01:37:36;;;;;;;8.60;4.23;;;6.70;99.90;;;;;;4942840;28;20066;-91
2023/10/17 01:40:22;;;;;;;5.23;3.50;;;6.70;99.90;;;;;;4958762;28;20043;-91
2023/10/17 01:42:49;;;;;;;7.00;4.03;;;6.70;99.90;;;;;;4958823;28;20065;-91
2023/10/17 01:45:16;;;;;;;6.20;4.27;;;6.70;99.90;;;;;;4955536;29;20045;-91
2023/10/17 01:47:43;;;;;;;4.53;3.50;;;6.60;99.90;;;;;;4940308;29;20499;-91
2023/10/17 01:50:10;;;;;;;6.77;4.30;;;6.70;99.90;;;;;;4968397;28;20093;-90
2023/10/17 01:52:37;;;;;;;7.60;4.43;;;6.60;99.90;;;;;;4943371;28;20104;-90
2023/10/17 01:55:10;;;;;;;8.20;4.50;;;6.60;99.90;;;;;;4947121;28;20050;-91
2023/10/17 01:57:40;;;;;;;6.03;4.20;;;6.60;99.90;;;;;;4943963;28;20188;-92
2023/10/17 02:03:16;;;;;;;6.37;3.97;;;6.60;99.90;;;;;;4979221;28;20502;-92
2023/10/17 02:05:42;;;;;;;;;;;6.60;99.90;;;;;;4959199;28;20053;-91
2023/10/17 02:08:08;;;;;;;7.00;3.47;;;6.60;99.90;;;;;;4959005;28;19917;-91
2023/10/17 02:10:34;;;;;;;5.20;3.77;;;6.50;99.90;;;;;;4958234;28;20505;-91
2023/10/17 02:13:04;;;;;;;7.77;3.50;;;6.50;99.90;;;;;;4959034;28;20085;-92
2023/10/17 02:15:30;;;;;;;8.13;3.77;;;6.50;99.90;;;;;;4958693;28;20105;-92
2023/10/17 02:17:57;;;;;;;6.77;3.70;;;6.50;99.90;;;;;;4955342;29;20492;-91
2023/10/17 02:22:55;;;;;;;8.45;3.83;;;6.50;99.90;;;;;;4959476;28;20046;-92
2023/10/17 02:25:21;;;;;;;6.03;3.73;;;6.40;99.90;;;;;;4940018;29;20047;-91
2023/10/17 02:27:48;;;;;;;6.07;3.70;;;6.40;99.90;;;;;;4944528;28;20077;-92
2023/10/17 02:30:15;;;;;;;5.63;3.53;;;6.40;99.90;;;;;;4959083;28;20053;-91
2023/10/17 02:32:44;;;;;;;6.77;4.60;;;6.40;99.90;;;;;;4942833;28;20129;-91
2023/10/17 02:35:14;;;;;;;6.70;4.20;;;6.50;99.90;;;;;;4959513;28;20039;-92
2023/10/17 02:37:43;;;;;;;6.67;4.47;;;6.50;99.90;;;;;;4958608;28;20058;-92
2023/10/17 02:40:19;;;;;;;6.80;4.50;;;6.50;99.90;;;;;;4942810;28;20069;-92
2023/10/17 02:42:45;;;;;;;10.47;4.63;;;6.50;99.90;;;;;;4974467;28;20038;-91
2023/10/17 02:45:11;;;;;;;8.50;4.27;;;6.50;99.90;;;;;;4942393;28;20129;-91
2023/10/17 02:47:36;;;;;;;6.97;3.93;;;6.50;99.90;;;;;;4941719;28;20559;-90
2023/10/17 02:50:19;;;;;;;10.57;3.93;;;6.50;99.90;;;;;;4941679;28;20049;-91
2023/10/17 02:52:51;;;;;;;6.00;4.00;;;6.40;99.90;;;;;;4960158;28;20070;-92
2023/10/17 02:55:23;;;;;;;6.85;4.22;;;6.40;99.90;;;;;;4949598;28;20058;-91
2023/10/17 02:57:53;;;;;;;5.53;4.30;;;6.40;99.90;;;;;;4957651;28;20038;-91
2023/10/17 03:00:22;;;;;;;6.50;4.73;;;6.40;99.90;;;;;;4942203;28;20039;-91
2023/10/17 03:02:58;;;;;;;6.10;4.07;;;6.40;99.90;;;;;;4958112;28;20084;-91
2023/10/17 03:05:25;;;;;;;7.67;5.10;;;6.50;99.90;;;;;;4968096;28;20431;-92
2023/10/17 03:07:51;;;;;;;8.87;5.30;;;6.50;99.90;;;;;;4974054;28;20049;-90
2023/10/17 03:10:57;;;;;;;5.53;4.90;;;6.50;99.90;;;;;;4957910;28;20039;-92
2023/10/17 03:15:46;;;;;;;7.30;6.03;;;6.60;99.90;;;;;;4973238;28;20073;-91
2023/10/17 03:18:16;;;;;;;8.53;5.87;;;6.60;99.90;;;;;;4957083;28;20482;-91
2023/10/17 03:20:53;;;;;;;8.00;6.30;;;6.60;99.90;;;;;;4958033;28;20072;-90
2023/10/17 03:23:29;;;;;;;6.73;5.93;;;6.60;99.90;;;;;;4943917;28;20078;-91
2023/10/17 03:26:01;;;;;;;8.73;6.77;;;6.70;99.90;;;;;;4957679;28;20449;-91
2023/10/17 03:28:27;;;;;;;8.57;6.50;;;6.60;99.90;;;;;;4958042;28;20038;-92
2023/10/17 03:30:54;;;;;;;7.67;6.33;;;6.60;99.90;;;;;;4973869;28;20047;-91
2023/10/17 03:33:26;;;;;;;9.50;6.20;;;6.60;99.90;;;;;;4957777;28;20406;-91
2023/10/17 03:38:31;;;;;;;10.03;7.23;;;6.70;99.90;;;;;;4972746;28;20035;-91
2023/10/17 03:41:02;;;;;;;6.40;5.80;;;6.60;99.90;;;;;;4957460;28;20070;-91
2023/10/17 03:43:38;;;;;;;8.50;6.20;;;6.70;99.90;;;;;;4942139;28;20039;-92
2023/10/17 03:46:05;;;;;;;9.50;6.77;;;6.70;99.90;;;;;;4936343;28;20050;-90
2023/10/17 03:48:36;;;;;;;10.87;6.60;;;6.70;99.90;;;;;;4932099;29;20399;-91
2023/10/17 03:53:32;;;;;;;9.93;6.77;;;6.70;99.90;;;;;;4953831;29;20055;-91
2023/10/17 03:56:02;;;;;;;10.23;6.87;;;6.80;99.90;;;;;;4922174;29;20057;-91
2023/10/17 04:00:57;;;;;;;9.97;6.80;;;6.80;99.90;;;;;;4972733;28;20070;-91
2023/10/17 04:03:30;;;;;;;10.53;6.90;;;6.80;99.90;;;;;;4957120;28;20112;-92
2023/10/17 04:08:48;;;;;;;10.67;7.87;;;6.90;99.90;;;;;;4973096;28;20047;-92
2023/10/17 04:13:52;;;;;;;11.33;7.57;;;7.00;99.90;;;;;;4952868;29;20054;-91
2023/10/17 04:16:22;;;;;;;9.33;7.03;;;6.90;99.90;;;;;;4946898;28;20047;-92
2023/10/17 04:18:55;;;;;;;10.70;8.63;;;6.90;99.90;;;;;;4958183;28;20046;-91
2023/10/17 04:21:32;;;;;;;13.33;7.60;;;7.00;99.90;;;;;;4960544;28;20465;-92
2023/10/17 04:24:06;;;;;;;10.90;7.83;;;7.00;99.90;;;;;;4962622;28;20069;-92
2023/10/17 04:26:35;;;;;;;12.20;8.07;;;7.00;99.90;;;;;;4957116;28;20053;-91
2023/10/17 04:29:18;;;;;;;10.47;8.60;;;7.10;99.90;;;;;;4961271;28;20085;-92
2023/10/17 04:31:45;;;;;;;8.93;7.70;;;7.10;99.90;;;;;;4946609;28;20053;-92
2023/10/17 04:34:21;;;;;;;9.67;7.63;;;7.10;99.90;;;;;;4960780;28;20494;-91
2023/10/17 04:36:51;;;;;;;9.63;7.37;;;7.20;99.90;;;;;;4960152;28;20050;-92
2023/10/17 04:44:21;;;;;;;9.00;7.03;;;7.20;99.90;;;;;;4976755;28;20086;-91
2023/10/17 04:46:50;;;;;;;10.43;7.63;;;7.20;99.90;;;;;;4960848;28;20050;-92
2023/10/17 04:49:18;;;;;;;9.80;7.67;;;7.20;99.90;;;;;;4946644;28;20077;-91
2023/10/17 04:51:44;;;;;;;7.83;7.03;;;7.30;99.90;;;;;;4961292;28;20186;-91
2023/10/17 04:54:22;;;;;;;8.87;7.63;;;7.30;99.90;;;;;;4944648;28;20109;-91
2023/10/17 04:57:15;;;;;;;8.77;7.17;;;7.30;99.90;;;;;;4959997;28;20058;-90
2023/10/17 06:18:52;;;;;;;11.93;7.97;;;7.50;99.90;;;;;;4975487;28;20098;-89
2023/10/17 06:21:19;;;;;;;9.80;8.17;;;7.50;99.90;;;;;;4958703;28;20078;-90
2023/10/17 06:34:19;;;;;;;12.60;8.43;;;7.60;99.90;;;;;;4976926;28;20054;-90
2023/10/17 06:36:49;;;;;;;9.43;8.07;;;7.60;99.90;;;;;;4959597;28;20039;-90
2023/10/17 06:39:19;;;;;;;10.37;7.20;;;7.60;99.90;;;;;;4958429;28;20098;-89
2023/10/17 06:41:46;;;;;;;10.13;7.33;;;7.60;99.90;;;;;;4942447;28;20097;-90
2023/10/17 06:44:21;;;;;;;11.47;7.90;;;7.60;99.90;;;;;;4957509;28;20039;-89
2023/10/17 06:54:52;;;;;;;8.30;7.13;;;7.70;99.90;;;;;;4962043;28;20042;-90
2023/10/17 06:57:24;;;;;;;10.00;7.20;;;7.70;99.90;;;;;;4974400;28;20122;-90
2023/10/17 06:59:51;;;;;;;;;;;7.80;99.90;;;;;;4959698;28;20102;-90
2023/10/17 07:02:34;;;;;;;11.73;7.73;;;7.80;99.90;;;;;;4949253;28;19925;-90
2023/10/17 07:05:01;;;;;;;10.57;7.83;;;7.80;99.90;;;;;;4960015;28;20054;-90
2023/10/17 07:07:40;;;;;;;10.70;7.97;;;7.80;99.90;;;;;;4958707;28;20043;-89
2023/10/17 07:10:16;;;;;;;10.90;7.80;;;7.80;99.90;;;;;;4958415;28;20046;-89
2023/10/17 07:12:50;;;;;;;10.77;7.97;;;7.90;99.90;;;;;;4957417;28;20125;-89
2023/10/17 07:15:19;;;;;;;9.77;8.17;;;8.00;99.90;;;;;;4943893;28;20177;-90
2023/10/17 07:17:50;;;;;;;13.83;8.97;;;8.10;99.90;;;;;;4944487;28;20042;-89
2023/10/17 07:21:08;;;;;;;11.67;8.43;;;8.20;99.90;;;;;;4926275;29;20046;-90
2023/10/17 07:23:13;;;;;;;11.30;8.27;;;8.20;99.90;;;;;;4954830;28;20145;-89
2023/10/17 07:25:39;;;;;;;12.60;8.73;;;8.20;99.90;;;;;;4965522;28;20177;-89
2023/10/17 07:28:10;;;;;;;11.57;8.13;;;8.20;99.90;;;;;;4922964;29;20477;-90
2023/10/17 07:30:48;;;;;;;10.23;8.10;;;8.20;99.90;;;;;;4968042;28;20113;-89
2023/10/17 07:33:17;;;;;;;9.30;8.10;;;8.30;99.90;;;;;;4943187;28;20289;-89
2023/10/17 07:35:43;;;;;;;12.63;8.57;;;8.40;99.90;;;;;;4957829;28;20043;-90
2023/10/17 07:38:09;;;;;;;13.83;8.40;;;8.50;99.90;;;;;;4942179;28;20050;-89
2023/10/17 07:43:10;;;;;;;10.82;9.20;;;8.60;99.90;;;;;;4975424;28;20119;-90
2023/10/17 07:45:39;;;;;;;12.50;9.07;;;8.60;99.90;;;;;;4961340;28;20081;-90
2023/10/17 07:48:25;;;;;;;12.47;8.60;;;8.70;99.90;;;;;;4954368;29;20070;-90
2023/10/17 07:50:53;;;;;;;12.23;8.43;;;8.70;99.90;;;;;;4965412;28;20070;-89
2023/10/17 07:53:20;;;;;;;14.47;8.60;;;8.80;99.90;;;;;;4955820;28;20038;-89
2023/10/17 07:55:48;;;;;;;10.93;8.43;;;8.90;99.90;;;;;;4922300;29;20573;-89
2023/10/17 07:58:17;;;;;;;10.80;8.70;;;9.00;99.90;;;;;;4938650;29;20035;-89
2023/10/17 08:00:48;;;;;;;11.57;8.27;;;9.00;99.90;;;;;;4922750;29;20043;-89
2023/10/17 08:03:20;;;;;;;11.43;8.57;;;9.10;99.90;;;;;;4922795;29;20039;-89
2023/10/17 08:05:54;;;;;;;9.43;7.85;;;9.20;99.90;;;;;;4938805;29;20043;-88
2023/10/17 08:08:23;;;;;;;12.47;8.03;;;9.30;99.90;;;;;;4938181;29;20098;-90
2023/10/17 08:10:48;;;;;;;10.37;7.17;;;9.40;99.90;;;;;;4926672;28;20475;-88
2023/10/17 08:13:15;;;;;;;14.13;7.60;;;9.40;99.90;;;;;;4940860;28;20070;-88
2023/10/17 08:15:51;;;;;;;11.10;7.17;;;9.50;99.90;;;;;;4921707;29;20086;-88
2023/10/17 08:18:24;;;;;;;11.40;7.03;;;9.50;99.90;;;;;;4939362;29;20075;-87
2023/10/17 08:23:29;;;;;;;10.33;6.97;;;9.70;99.90;;;;;;4953590;28;20047;-88
2023/10/17 08:26:10;;;;;;;7.83;5.37;;;9.80;99.90;;;;;;4922237;29;20436;-87
2023/10/17 08:31:27;;;;;;;8.83;6.07;;;9.90;99.90;;;;;;4953589;29;20048;-87
2023/10/17 08:34:04;;;;;;;10.27;6.10;;;10.00;99.90;;;;;;4953562;29;20047;-89
2023/10/17 08:36:49;;;;;;;9.27;6.47;;;10.00;99.90;;;;;;4953781;29;20110;-87
2023/10/17 08:42:05;;;;;;;7.40;5.13;;;10.10;99.90;;;;;;4963420;28;20085;-90
2023/10/17 08:44:34;;;;;;;7.80;5.70;;;10.20;99.90;;;;;;4953725;28;20114;-88
2023/10/17 08:47:04;;;;;;;8.43;4.87;;;10.20;99.90;;;;;;4946456;28;20125;-87
2023/10/17 08:49:31;;;;;;;7.70;5.47;;;10.30;99.90;;;;;;4972620;28;20164;-88
2023/10/17 08:52:00;;;;;;;8.03;5.40;;;10.40;99.90;;;;;;4955095;28;20043;-85
2023/10/17 08:54:28;;;;;;;6.63;5.40;;;10.40;99.90;;;;;;4972211;28;20066;-86
2023/10/17 08:56:55;;;;;;;6.67;4.80;;;10.50;99.90;;;;;;4955109;28;20055;-86
2023/10/17 09:00:13;;;;;;;6.63;5.47;;;10.60;99.90;;;;;;4955246;28;20499;-85
2023/10/17 09:04:46;;;;;;;7.83;4.80;;;10.70;99.90;;;;;;4972733;28;20050;-86
2023/10/17 09:07:22;;;;;;;7.77;5.10;;;10.70;99.90;;;;;;4969652;28;20130;-85
2023/10/17 09:09:54;;;;;;;7.77;4.70;;;10.70;99.90;;;;;;4960787;28;20514;-85
2023/10/17 09:12:24;;;;;;;6.07;4.20;;;10.80;99.90;;;;;;4969022;28;20047;-86
2023/10/17 09:14:52;;;;;;;5.80;4.23;;;10.70;99.90;;;;;;4958364;28;20049;-86
2023/10/17 09:19:53;;;;;;;5.95;3.60;;;10.90;99.90;;;;;;4955593;28;20054;-86
2023/10/17 09:22:24;;;;;;;4.83;3.80;;;10.90;99.90;;;;;;4958846;28;20038;-84
2023/10/17 09:24:50;;;;;;;8.57;3.58;;;11.00;99.90;;;;;;4960504;28;20243;-87
2023/10/17 09:27:19;;;;;;;6.00;3.23;;;11.00;99.90;;;;;;4955041;28;20057;-88
2023/10/17 09:29:50;;;;;;;5.03;3.53;;;11.10;99.90;;;;;;4958815;28;20043;-89
2023/10/17 09:32:37;;;;;;;3.83;3.00;;;11.10;99.90;;;;;;4958876;28;20382;-85
2023/10/17 09:35:11;;;;;;;4.30;3.05;;;11.20;99.90;;;;;;4970144;28;20051;-84
2023/10/17 09:37:42;;;;;;;3.85;3.40;;;11.20;99.90;;;;;;4973161;28;20085;-88
2023/10/17 09:40:12;;;;;;;4.70;3.60;;;11.30;99.90;;;;;;4975523;28;20459;-86
2023/10/17 09:42:47;;;;;;;4.85;2.85;;;11.30;99.90;;;;;;4958939;28;20121;-87
2023/10/17 09:45:14;;;;;;;4.47;2.70;;;11.40;99.90;;;;;;4954499;28;20045;-87
2023/10/17 09:47:46;;;;;;;5.97;3.00;;;11.50;99.90;;;;;;4941637;28;20062;-87
2023/10/17 09:50:20;;;;;;;6.03;2.65;;;11.50;99.90;;;;;;4955324;29;20134;-84
2023/10/17 09:52:54;;;;;;;3.97;2.50;;;11.50;99.90;;;;;;4971627;28;20546;-87
2023/10/17 09:55:23;;;;;;;4.30;2.40;;;11.50;99.90;;;;;;4974328;28;20055;-86
2023/10/17 09:58:19;;;;;;;4.40;2.08;;;11.60;99.90;;;;;;4974465;28;20058;-85
2023/10/17 10:01:00;;;;;;;4.07;2.08;;;11.70;99.90;;;;;;4956732;28;20050;-86
2023/10/17 10:03:28;;;;;;;4.18;2.38;;;11.60;99.90;;;;;;4974272;28;20053;-85
2023/10/17 10:05:55;;;;;;;4.32;1.95;;;11.60;99.90;;;;;;4974454;28;20119;-88
2023/10/17 10:08:34;;;;;;;5.47;2.08;;;11.60;99.90;;;;;;4974629;28;20061;-87
2023/10/17 10:11:01;;;;;;;4.30;2.15;;;11.70;99.90;;;;;;4937692;29;20062;-85
2023/10/17 10:13:27;;;;;;;4.82;1.83;;;11.70;99.90;;;;;;4969010;28;20051;-87
2023/10/17 10:15:55;;;;;;;6.38;1.90;;;11.70;99.90;;;;;;4938787;28;20054;-89
2023/10/17 10:18:40;;;;;;;4.35;1.80;;;11.70;99.90;;;;;;4973867;28;20125;-91
2023/10/17 10:21:12;;;;;;;4.30;1.70;;;11.70;99.90;;;;;;4963833;28;20517;-85
2023/10/17 10:23:39;;;;;;;1.77;1.38;;;11.80;99.90;;;;;;4973602;28;20515;-85
2023/10/17 10:26:10;;;;;;;1.65;1.50;;;11.70;99.90;;;;;;4973995;28;20092;-86
2023/10/17 10:28:40;;;;;;;3.83;1.63;;;11.80;99.90;;;;;;4974027;28;20046;-86
2023/10/17 10:31:21;;;;;;;2.97;1.27;;;11.80;99.90;;;;;;4957929;28;20034;-90
2023/10/17 10:33:58;;;;;;;5.05;1.63;;;11.80;99.90;;;;;;4974045;28;20042;-85
2023/10/17 10:36:24;;;;;;;3.58;1.58;;;11.90;99.90;;;;;;4954110;29;20039;-87
2023/10/17 10:38:54;;;;;;;2.88;1.67;;;11.90;99.90;;;;;;4972086;28;20182;-87
2023/10/17 10:41:25;;;;;;;2.90;1.70;;;11.90;99.90;;;;;;4941919;29;20054;-87
2023/10/17 10:43:58;;;;;;;3.28;1.33;;;11.90;99.90;;;;;;4970620;28;20039;-87
2023/10/17 10:46:24;;;;;;;2.50;1.42;;;11.90;99.90;;;;;;4957441;28;20043;-88
2023/10/17 10:48:56;;;;;;;2.80;1.40;;;12.00;99.90;;;;;;4942377;28;20132;-87
2023/10/17 10:51:24;;;;;;;3.92;1.40;;;12.00;99.90;;;;;;4957569;28;20054;-86
2023/10/17 10:53:56;;;;;;;3.60;1.40;;;12.10;99.90;;;;;;4973666;28;20109;-87
2023/10/17 10:56:26;;;;;;;3.13;1.50;;;12.10;99.90;;;;;;4971390;28;20059;-89
2023/10/17 10:58:57;;;;;;;3.63;1.73;;;12.00;99.90;;;;;;4965222;28;20085;-86
2023/10/17 11:01:28;;;;;;;4.15;1.65;;;12.10;99.90;;;;;;4973026;28;20038;-86
2023/10/17 11:03:53;;;;;;;2.05;1.30;;;12.10;99.90;;;;;;4940764;28;20042;-84
2023/10/17 11:06:24;;;;;;;2.40;1.23;;;12.20;99.90;;;;;;4956851;28;20042;-87
2023/10/17 11:08:51;;;;;;;2.42;1.50;;;12.20;99.90;;;;;;4956512;28;20042;-86
2023/10/17 11:11:19;;;;;;;3.47;1.60;;;12.20;99.90;;;;;;4955583;28;20046;-85
2023/10/17 11:13:49;;;;;;;4.53;1.65;;;12.30;99.90;;;;;;4972553;28;20050;-85
2023/10/17 11:16:20;;;;;;;2.78;1.35;;;12.30;99.90;;;;;;4973319;28;20035;-89
2023/10/17 11:18:47;;;;;;;3.00;1.85;;;12.30;99.90;;;;;;4942009;28;20046;-85
2023/10/17 11:21:14;;;;;;;4.10;1.75;;;12.30;99.90;;;;;;4938433;28;20110;-86
2023/10/17 11:23:45;;;;;;;2.88;1.42;;;12.30;99.90;;;;;;4956608;28;20050;-88
2023/10/17 11:26:12;;;;;;;2.95;1.55;;;12.30;99.90;;;;;;4973039;28;20123;-86
2023/10/17 11:28:46;;;;;;;3.05;1.40;;;12.30;99.90;;;;;;4955984;28;20051;-87
2023/10/17 11:31:21;;;;;;;2.95;1.55;;;12.30;99.90;;;;;;4956426;28;20034;-86
2023/10/17 11:33:53;;;;;;;3.75;1.90;;;12.40;99.90;;;;;;4973188;28;20423;-90
2023/10/17 11:36:20;;;;;;;2.22;1.70;;;12.40;99.90;;;;;;4956391;28;20043;-87
2023/10/17 11:38:56;;;;;;;3.60;1.90;;;12.40;99.90;;;;;;4956788;28;20042;-86
2023/10/17 11:41:30;;;;;;;3.33;1.60;;;12.40;99.90;;;;;;4972629;28;20042;-84
2023/10/17 11:44:04;;;;;;;2.42;1.85;;;12.40;99.90;;;;;;4941463;28;20031;-85
2023/10/17 11:46:30;;;;;;;3.22;1.95;;;12.40;99.90;;;;;;4965041;28;20098;-85
2023/10/17 11:49:26;;;;;;;5.03;2.03;;;12.40;99.90;;;;;;4971749;28;20614;-84
2023/10/17 11:52:02;;;;;;;5.32;1.80;;;12.40;99.90;;;;;;4972705;28;20392;-84
2023/10/17 11:54:29;;;;;;;3.10;1.95;;;12.50;99.90;;;;;;4972448;28;20062;-85
2023/10/17 11:56:55;;;;;;;4.60;1.95;;;12.50;99.90;;;;;;4948548;28;20059;-86
2023/10/17 11:59:21;;;;;;;2.38;1.98;;;12.50;99.90;;;;;;4956663;28;20039;-84
2023/10/17 12:01:52;;;;;;;4.63;1.90;;;12.60;99.90;;;;;;4956318;28;20039;-86
2023/10/17 12:04:19;;;;;;;3.42;1.75;;;12.60;99.90;;;;;;4956465;28;20042;-88
2023/10/17 12:06:48;;;;;;;2.70;1.85;;;12.60;99.90;;;;;;4956704;28;20134;-85
2023/10/17 12:09:17;;;;;;;3.90;1.80;;;12.60;99.90;;;;;;4961758;28;20828;-87
2023/10/17 12:11:47;;;;;;;5.18;1.92;;;12.60;99.90;;;;;;4956116;28;20039;-87
2023/10/17 12:14:20;;;;;;;3.58;2.20;;;12.60;99.90;;;;;;4957001;28;20114;-89
2023/10/17 12:16:49;;;;;;;3.33;2.20;;;12.60;99.90;;;;;;4971837;28;20051;-89
2023/10/17 12:19:17;;;;;;;5.68;2.20;;;12.60;99.90;;;;;;4972280;28;20062;-87
2023/10/17 12:21:47;;;;;;;4.30;2.08;;;12.70;99.90;;;;;;4955198;28;20203;-89
2023/10/17 12:24:28;;;;;;;2.50;2.08;;;12.70;99.90;;;;;;4955734;28;20043;-85
2023/10/17 12:26:55;;;;;;;2.92;2.60;;;12.70;99.90;;;;;;4972092;28;20113;-86
2023/10/17 12:29:25;;;;;;;4.15;2.00;;;12.70;99.90;;;;;;4956197;28;20039;-84
2023/10/17 12:31:57;;;;;;;3.00;1.75;;;12.70;99.90;;;;;;4955977;28;20375;-86
2023/10/17 12:34:23;;;;;;;4.15;2.88;;;12.80;99.90;;;;;;4973181;28;20050;-86
2023/10/17 12:36:49;;;;;;;3.30;2.30;;;12.80;99.90;;;;;;4956760;28;20053;-87
2023/10/17 12:39:18;;;;;;;2.67;2.03;;;12.90;99.90;;;;;;4972715;28;20031;-86
2023/10/17 12:41:48;;;;;;;4.68;2.20;;;12.90;99.90;;;;;;4945485;28;20038;-88
2023/10/17 12:44:18;;;;;;;3.20;2.47;;;12.90;99.90;;;;;;4960675;28;20035;-86
2023/10/17 12:46:44;;;;;;;4.45;2.38;;;13.00;99.90;;;;;;4959881;28;20508;-91
2023/10/17 12:49:11;;;;;;;4.95;2.00;;;13.00;99.90;;;;;;4960326;28;20039;-86
2023/10/17 12:51:38;;;;;;;3.40;2.08;;;13.00;99.90;;;;;;4959964;28;20070;-85
2023/10/17 12:54:04;;;;;;;3.47;2.17;;;13.00;99.90;;;;;;4992305;28;20135;-86
2023/10/17 12:56:29;;;;;;;5.00;2.65;;;13.00;99.90;;;;;;4959739;28;20142;-88
2023/10/17 12:58:55;;;;;;;2.63;1.80;;;13.00;99.90;;;;;;4959969;28;20194;-86
2023/10/17 13:01:25;;;;;;;4.53;1.85;;;13.10;99.90;;;;;;4960337;28;20039;-86
2023/10/17 13:03:57;;;;;;;4.78;2.80;;;13.10;99.90;;;;;;4976093;28;20502;-85
2023/10/17 13:06:25;;;;;;;3.35;2.03;;;13.10;99.90;;;;;;4959922;28;20089;-86
2023/10/17 13:08:56;;;;;;;3.95;2.13;;;13.00;99.90;;;;;;4959868;28;20134;-88
2023/10/17 13:11:26;;;;;;;3.33;2.30;;;13.10;99.90;;;;;;4960116;28;20043;-87
2023/10/17 13:13:52;;;;;;;2.75;2.03;;;13.10;99.90;;;;;;4960309;28;20053;-85
2023/10/17 13:16:20;;;;;;;2.30;1.80;;;13.10;99.90;;;;;;4959743;28;20038;-87
2023/10/17 13:18:47;;;;;;;2.33;1.73;;;13.20;99.90;;;;;;4944024;28;20109;-85
2023/10/17 13:21:16;;;;;;;2.83;1.40;;;13.20;99.90;;;;;;4959903;28;20049;-88
2023/10/17 13:23:44;;;;;;;2.67;1.60;;;13.20;99.90;;;;;;4943060;28;20482;-86
2023/10/17 13:26:11;;;;;;;2.60;1.70;;;13.10;99.90;;;;;;4975720;28;20055;-86
2023/10/17 13:28:38;;;;;;;4.18;1.80;;;13.10;99.90;;;;;;4943376;28;20054;-87
2023/10/17 13:31:14;;;;;;;2.92;1.55;;;13.10;99.90;;;;;;4975742;28;20059;-86
2023/10/17 13:33:49;;;;;;;3.28;1.70;;;13.10;99.90;;;;;;4975362;28;20057;-84
2023/10/17 13:36:20;;;;;;;6.15;2.28;;;13.10;99.90;;;;;;4945331;28;20121;-87
2023/10/17 13:38:46;;;;;;;6.22;2.22;;;13.10;99.90;;;;;;4964076;28;20039;-86
2023/10/17 13:41:15;;;;;;;2.70;1.90;;;13.10;99.90;;;;;;4975347;28;20126;-86
2023/10/17 13:43:42;;;;;;;3.38;1.67;;;13.10;99.90;;;;;;4975261;28;20047;-87
2023/10/17 13:46:10;;;;;;;4.28;1.83;;;13.10;99.90;;;;;;4958790;28;20047;-85
2023/10/17 13:48:36;;;;;;;5.70;1.60;;;13.00;99.90;;;;;;4975120;28;20051;-85
2023/10/17 13:51:08;;;;;;;4.63;1.67;;;13.10;99.90;;;;;;4958280;28;20050;-85
2023/10/17 13:53:36;;;;;;;4.93;1.80;;;13.00;99.90;;;;;;4975269;28;20047;-85
2023/10/17 13:56:16;;;;;;;4.30;1.73;;;13.00;99.90;;;;;;4943215;28;20055;-87
2023/10/17 13:58:42;;;;;;;2.92;1.75;;;13.10;99.90;;;;;;4976063;28;20044;-86
2023/10/17 14:04:01;;;;;;;4.07;1.70;;;13.10;99.90;;;;;;4975053;28;20069;-85
2023/10/17 14:06:27;;;;;;;2.97;1.48;;;13.10;99.90;;;;;;4974698;28;20047;-85
2023/10/17 14:08:59;;;;;;;2.67;1.40;;;13.10;99.90;;;;;;4975065;28;20072;-87
2023/10/17 14:11:25;;;;;;;2.03;1.40;;;13.10;99.90;;;;;;4959928;28;20518;-85
2023/10/17 14:13:51;;;;;;;3.95;1.20;;;13.00;99.90;;;;;;4972418;28;20081;-86
2023/10/17 14:16:22;;;;;;;2.20;1.50;;;13.10;99.90;;;;;;4990037;28;20082;-85
2023/10/17 14:18:52;;;;;;;1.90;1.40;;;13.10;99.90;;;;;;4974422;28;20038;-86
2023/10/17 14:21:40;;;;;;;2.10;1.50;;;13.10;99.90;;;;;;4958582;28;20377;-88
2023/10/17 14:24:20;;;;;;;2.35;1.30;;;13.10;99.90;;;;;;4974144;28;20035;-88
2023/10/17 14:26:48;;;;;;;3.35;1.40;;;13.00;99.90;;;;;;4958971;28;20039;-87
2023/10/17 14:29:14;;;;;;;3.75;1.35;;;13.00;99.90;;;;;;4974562;28;20047;-87
2023/10/17 14:31:40;;;;;;;2.65;1.38;;;12.90;99.90;;;;;;4958507;28;20434;-86
2023/10/17 14:34:09;;;;;;;3.45;1.77;;;12.90;99.90;;;;;;4942371;28;20035;-85
2023/10/17 14:36:36;;;;;;;3.85;1.70;;;12.90;99.90;;;;;;4959180;28;20082;-87
2023/10/17 14:39:02;;;;;;;2.90;1.58;;;12.80;99.90;;;;;;4942149;28;20039;-85
2023/10/17 14:41:30;;;;;;;1.95;1.60;;;12.80;99.90;;;;;;4955089;29;20061;-86
2023/10/17 14:43:56;;;;;;;3.13;1.60;;;12.80;99.90;;;;;;4956061;28;20047;-87
2023/10/17 14:46:22;;;;;;;2.63;1.48;;;12.70;99.90;;;;;;4954852;29;20046;-87
2023/10/17 14:48:48;;;;;;;5.57;1.80;;;12.70;99.90;;;;;;4938671;29;20043;-87
2023/10/17 14:51:14;;;;;;;5.60;1.83;;;12.70;99.90;;;;;;4955201;28;20082;-91
2023/10/17 14:53:42;;;;;;;3.70;1.65;;;12.70;99.90;;;;;;4974306;28;20494;-88
2023/10/17 14:56:12;;;;;;;2.67;1.52;;;12.70;99.90;;;;;;4974502;28;20138;-89
2023/10/17 14:58:46;;;;;;;3.72;2.10;;;12.60;99.90;;;;;;4974712;28;20038;-88
2023/10/17 15:01:11;;;;;;;5.57;2.63;;;12.60;99.90;;;;;;4974062;28;20514;-87
2023/10/17 15:03:38;;;;;;;5.10;1.70;;;12.50;99.90;;;;;;4941554;28;20085;-88
2023/10/17 15:06:06;;;;;;;2.65;1.70;;;12.40;99.90;;;;;;4943284;28;20050;-89
2023/10/17 15:08:32;;;;;;;4.25;1.60;;;12.40;99.90;;;;;;4978571;28;20046;-88
2023/10/17 15:11:05;;;;;;;4.50;2.10;;;12.30;99.90;;;;;;4957790;28;20146;-91
2023/10/17 15:13:34;;;;;;;3.58;2.45;;;12.30;99.90;;;;;;4954925;29;20047;-89
2023/10/17 15:16:02;;;;;;;3.15;1.52;;;12.20;99.90;;;;;;4938647;29;20047;-88
2023/10/17 15:18:29;;;;;;;2.85;1.73;;;12.20;99.90;;;;;;4954893;28;20496;-87
2023/10/17 15:21:09;;;;;;;4.25;1.52;;;12.10;99.90;;;;;;4957612;28;20043;-86
2023/10/17 15:23:41;;;;;;;4.20;1.50;;;12.10;99.90;;;;;;4965145;28;20082;-86
2023/10/17 15:26:10;;;;;;;4.28;1.77;;;12.00;99.90;;;;;;4943092;28;20125;-90
2023/10/17 15:28:36;;;;;;;2.78;1.83;;;11.90;99.90;;;;;;4957770;28;20042;-86
2023/10/17 15:31:06;;;;;;;3.83;1.92;;;11.90;99.90;;;;;;4957142;28;20053;-87
2023/10/17 15:33:32;;;;;;;3.42;1.65;;;11.90;99.90;;;;;;4989136;28;20046;-87